createdAt,value
2019-04-28T00:01:31.119Z,1.00
2019-04-28T00:04:01.349Z,0.80
2019-04-28T00:06:31.102Z,0.60
2019-04-28T00:09:01.657Z,0.83
2019-04-28T00:11:31.706Z,1.70
2019-04-28T00:14:01.829Z,1.60
2019-04-28T00:16:31.176Z,0.70
2019-04-28T00:19:01.113Z,3.10
2019-04-28T00:21:31.971Z,6.70
2019-04-28T00:24:05.300Z,1.57
2019-04-28T00:26:38.376Z,0.80
2019-04-28T00:29:07.009Z,0.43
2019-04-28T00:31:35.702Z,1.30
2019-04-28T00:34:05.145Z,2.43
2019-04-28T00:36:34.474Z,4.90
2019-04-28T00:39:03.096Z,0.73
2019-04-28T00:41:31.718Z,1.23
2019-04-28T00:44:01.899Z,0.73
2019-04-28T00:46:32.371Z,0.60
2019-04-28T00:49:02.167Z,0.50
2019-04-28T00:51:31.405Z,0.70
2019-04-28T00:54:00.845Z,0.70
2019-04-28T00:56:29.401Z,0.80
2019-04-28T00:58:58.026Z,0.60
2019-04-28T01:01:31.065Z,0.60
2019-04-28T01:04:01.954Z,0.90
2019-04-28T01:06:32.006Z,0.77
2019-04-28T01:09:01.393Z,0.93
2019-04-28T01:11:31.637Z,0.60
2019-04-28T01:14:01.746Z,0.70
2019-04-28T01:16:31.964Z,0.60
2019-04-28T01:19:11.048Z,0.90
2019-04-28T01:21:57.313Z,4.07
2019-04-28T01:24:25.979Z,0.60
2019-04-28T01:26:56.208Z,0.50
2019-04-28T01:29:24.767Z,2.20
2019-04-28T01:31:54.957Z,0.60
2019-04-28T01:34:24.209Z,2.50
2019-04-28T01:36:52.843Z,1.20
2019-04-28T01:39:21.453Z,1.17
2019-04-28T01:41:50.088Z,1.20
2019-04-28T01:44:19.846Z,0.60
2019-04-28T01:46:49.639Z,2.50
2019-04-28T01:49:19.614Z,0.53
2019-04-28T01:52:00.510Z,0.70
2019-04-28T01:54:30.284Z,0.63
2019-04-28T01:57:01.083Z,0.50
2019-04-28T01:59:30.223Z,0.50
2019-04-28T02:02:00.094Z,0.87
2019-04-28T02:04:30.067Z,1.37
2019-04-28T02:06:59.825Z,0.77
2019-04-28T02:09:29.677Z,0.87
2019-04-28T02:12:00.614Z,0.63
2019-04-28T02:14:30.648Z,1.20
2019-04-28T02:17:00.531Z,2.10
2019-04-28T02:19:30.590Z,0.83
2019-04-28T02:22:01.175Z,0.70
2019-04-28T02:24:37.184Z,0.50
2019-04-28T02:27:05.980Z,2.10
2019-04-28T02:29:35.044Z,0.93
2019-04-28T02:32:04.144Z,0.60
2019-04-28T02:34:32.704Z,0.80
2019-04-28T02:37:01.873Z,0.60
2019-04-28T02:39:31.477Z,0.87
2019-04-28T02:42:01.394Z,0.73
2019-04-28T02:44:33.955Z,0.70
2019-04-28T02:47:01.247Z,0.80
2019-04-28T02:49:34.659Z,0.97
2019-04-28T02:52:21.083Z,2.53
2019-04-28T02:54:50.816Z,0.87
2019-04-28T02:57:20.864Z,0.90
2019-04-28T02:59:50.975Z,0.67
2019-04-28T03:02:20.801Z,2.10
2019-04-28T03:04:50.636Z,0.90
2019-04-28T03:07:21.693Z,0.57
2019-04-28T03:09:52.029Z,1.40
2019-04-28T03:12:21.501Z,0.70
2019-04-28T03:14:50.703Z,0.67
2019-04-28T03:17:20.808Z,3.30
2019-04-28T03:19:51.736Z,1.10
2019-04-28T03:22:20.549Z,0.80
2019-04-28T03:24:51.164Z,0.50
2019-04-28T03:27:27.589Z,0.60
2019-04-28T03:30:03.852Z,16.87
2019-04-28T03:32:52.483Z,1.43
2019-04-28T03:35:12.721Z,0.60
2019-04-28T03:37:41.398Z,0.97
2019-04-28T03:40:11.492Z,1.53
2019-04-28T03:42:41.066Z,0.50
2019-04-28T03:45:12.950Z,1.30
2019-04-28T03:47:41.440Z,0.60
2019-04-28T03:50:10.558Z,0.60
2019-04-28T03:52:41.420Z,0.50
2019-04-28T03:55:11.760Z,0.80
2019-04-28T03:57:41.226Z,2.60
2019-04-28T04:00:11.276Z,1.00
2019-04-28T04:02:41.119Z,0.93
2019-04-28T04:05:11.094Z,0.70
2019-04-28T04:07:42.714Z,1.53
2019-04-28T04:10:14.916Z,0.67
2019-04-28T04:12:45.104Z,0.70
2019-04-28T04:15:21.398Z,0.67
2019-04-28T04:18:03.532Z,0.93
2019-04-28T04:20:34.870Z,0.50
2019-04-28T04:23:03.488Z,1.97
2019-04-28T04:25:32.114Z,2.43
2019-04-28T04:28:03.830Z,1.67
2019-04-28T04:30:31.391Z,0.50
2019-04-28T04:33:01.162Z,1.03
2019-04-28T04:35:31.498Z,17.63
2019-04-28T04:38:00.671Z,1.90
2019-04-28T04:40:31.635Z,0.50
2019-04-28T04:43:01.647Z,0.57
2019-04-28T04:45:30.715Z,1.20
2019-04-28T04:48:00.636Z,0.93
2019-04-28T04:50:31.455Z,1.90
2019-04-28T04:53:02.331Z,0.70
2019-04-28T04:55:31.881Z,1.30
2019-04-28T04:58:00.865Z,4.57
2019-04-28T05:00:31.170Z,0.50
2019-04-28T05:03:04.217Z,0.80
2019-04-28T05:05:34.805Z,3.67
2019-04-28T05:08:03.440Z,1.40
2019-04-28T05:10:32.069Z,0.50
2019-04-28T05:13:00.644Z,0.80
2019-04-28T05:15:30.388Z,0.93
2019-04-28T05:18:00.238Z,0.67
2019-04-28T05:20:30.263Z,0.50
2019-04-28T05:23:03.462Z,15.77
2019-04-28T05:25:33.599Z,0.60
2019-04-28T05:28:02.996Z,0.83
2019-04-28T05:30:34.837Z,0.60
2019-04-28T05:33:02.136Z,0.73
2019-04-28T05:35:31.028Z,0.60
2019-04-28T05:37:59.864Z,0.60
2019-04-28T05:40:29.599Z,1.17
2019-04-28T05:42:58.233Z,2.53
2019-04-28T05:45:28.534Z,0.43
2019-04-28T05:47:59.463Z,0.50
2019-04-28T05:50:32.779Z,0.80
2019-04-28T05:53:05.930Z,1.60
2019-04-28T05:55:54.091Z,1.00
2019-04-28T05:58:27.135Z,0.50
2019-04-28T06:01:03.321Z,1.17
2019-04-28T06:03:33.521Z,0.50
2019-04-28T06:06:02.078Z,1.00
2019-04-28T06:08:32.283Z,0.50
2019-04-28T06:11:02.554Z,1.27
2019-04-28T06:13:31.119Z,1.43
2019-04-28T06:15:59.930Z,0.40
2019-04-28T06:18:28.679Z,0.50
2019-04-28T06:20:58.876Z,0.87
2019-04-28T06:23:27.432Z,0.50
2019-04-28T06:25:55.974Z,4.30
2019-04-28T06:28:24.650Z,1.70
2019-04-28T06:30:53.216Z,0.70
2019-04-28T06:33:21.805Z,0.43
2019-04-28T06:35:50.301Z,0.50
2019-04-28T06:38:18.854Z,0.50
2019-04-28T06:40:47.463Z,1.00
2019-04-28T06:43:16.018Z,0.50
2019-04-28T06:45:44.648Z,6.70
2019-04-28T06:48:13.259Z,13.10
2019-04-28T06:50:41.846Z,7.07
2019-04-28T06:53:10.401Z,6.37
2019-04-28T06:55:38.934Z,7.63
2019-04-28T06:58:07.551Z,8.80
2019-04-28T07:00:36.298Z,5.33
2019-04-28T07:03:04.911Z,5.43
2019-04-28T07:05:33.545Z,7.03
2019-04-28T07:08:02.091Z,7.53
2019-04-28T07:10:30.716Z,6.73
2019-04-28T07:12:59.379Z,4.57
2019-04-28T07:15:27.987Z,5.20
2019-04-28T07:17:56.477Z,3.57
2019-04-28T07:20:32.768Z,5.23
2019-04-28T07:23:03.919Z,5.67
2019-04-28T07:25:35.745Z,4.20
2019-04-28T07:28:04.771Z,6.17
2019-04-28T07:30:34.053Z,7.07
2019-04-28T07:33:02.611Z,5.93
2019-04-28T07:35:31.236Z,6.97
2019-04-28T07:37:59.865Z,4.50
2019-04-28T07:40:28.408Z,3.57
2019-04-28T07:42:56.998Z,6.40
2019-04-28T07:45:25.547Z,5.73
2019-04-28T07:47:54.168Z,4.87
2019-04-28T07:50:22.779Z,5.13
2019-04-28T07:53:02.113Z,7.60
2019-04-28T07:55:30.745Z,4.87
2019-04-28T07:57:59.362Z,6.10
2019-04-28T08:00:29.687Z,6.37
2019-04-28T08:02:58.285Z,6.77
2019-04-28T08:05:26.893Z,6.53
2019-04-28T08:07:55.528Z,4.60
2019-04-28T08:10:24.147Z,3.33
2019-04-28T08:12:52.704Z,5.00
2019-04-28T08:15:21.331Z,5.47
2019-04-28T08:17:49.801Z,6.27
2019-04-28T08:20:18.423Z,5.60
2019-04-28T08:22:46.980Z,6.33
2019-04-28T08:25:15.644Z,5.08
2019-04-28T08:27:44.270Z,4.60
2019-04-28T08:30:13.268Z,2.98
2019-04-28T08:32:55.572Z,4.42
2019-04-28T08:35:24.193Z,2.33
2019-04-28T08:37:52.744Z,3.77
2019-04-28T08:40:21.397Z,2.95
2019-04-28T08:42:50.023Z,5.37
2019-04-28T08:45:21.391Z,4.12
2019-04-28T08:47:50.065Z,5.53
2019-04-28T08:50:18.687Z,5.58
2019-04-28T08:52:47.321Z,11.93
2019-04-28T08:55:15.981Z,5.23
2019-04-28T08:57:44.527Z,5.40
2019-04-28T09:00:14.630Z,6.80
2019-04-28T09:02:43.275Z,5.87
2019-04-28T09:05:11.880Z,11.17
2019-04-28T09:07:40.471Z,5.63
2019-04-28T09:10:09.562Z,9.13
2019-04-28T09:12:38.185Z,4.30
2019-04-28T09:15:07.726Z,6.23
2019-04-28T09:17:36.351Z,4.13
2019-04-28T09:20:07.208Z,5.70
2019-04-28T09:22:35.684Z,2.95
2019-04-28T09:25:08.362Z,5.03
2019-04-28T09:27:36.903Z,5.67
2019-04-28T09:30:08.641Z,4.90
2019-04-28T09:32:37.263Z,2.00
2019-04-28T09:35:07.188Z,3.40
2019-04-28T09:37:35.819Z,6.58
2019-04-28T09:40:12.973Z,7.75
2019-04-28T09:42:45.898Z,3.30
2019-04-28T09:45:16.200Z,3.52
2019-04-28T09:47:44.823Z,2.53
2019-04-28T09:50:13.507Z,4.12
2019-04-28T09:52:42.141Z,3.90
2019-04-28T09:55:10.770Z,8.03
2019-04-28T09:57:39.377Z,5.80
2019-04-28T10:00:09.721Z,3.42
2019-04-28T10:02:38.337Z,3.95
2019-04-28T10:05:08.988Z,3.08
2019-04-28T10:07:37.591Z,4.85
2019-04-28T10:10:10.293Z,6.20
2019-04-28T10:12:38.955Z,6.03
2019-04-28T10:15:10.414Z,5.00
2019-04-28T10:17:38.972Z,5.60
2019-04-28T10:20:08.215Z,3.58
2019-04-28T10:22:36.866Z,2.70
2019-04-28T10:25:07.557Z,2.77
2019-04-28T10:27:39.336Z,3.67
2019-04-28T10:30:09.469Z,2.58
2019-04-28T10:32:39.511Z,5.90
2019-04-28T10:35:09.935Z,2.25
2019-04-28T10:37:38.550Z,4.20
2019-04-28T10:40:22.108Z,5.75
2019-04-28T10:42:50.657Z,5.30
2019-04-28T10:45:23.894Z,3.12
2019-04-28T10:47:52.521Z,2.12
2019-04-28T10:50:21.145Z,3.50
2019-04-28T10:52:49.771Z,2.72
2019-04-28T10:55:18.330Z,6.85
2019-04-28T10:57:46.891Z,1.72
2019-04-28T11:00:17.248Z,2.85
2019-04-28T11:02:45.812Z,2.62
2019-04-28T11:05:16.085Z,4.72
2019-04-28T11:07:44.708Z,2.83
2019-04-28T11:10:15.306Z,3.22
2019-04-28T11:12:46.820Z,5.85
2019-04-28T11:15:20.477Z,3.20
2019-04-28T11:17:49.225Z,2.75
2019-04-28T11:20:17.848Z,5.03
2019-04-28T11:22:46.605Z,4.70
2019-04-28T11:25:15.214Z,2.50
2019-04-28T11:27:43.777Z,3.80
2019-04-28T11:30:12.773Z,2.37
2019-04-28T11:32:42.976Z,1.85
2019-04-28T11:35:21.379Z,2.25
2019-04-28T11:37:43.505Z,3.45
2019-04-28T11:40:12.170Z,3.55
2019-04-28T11:42:40.831Z,4.90
2019-04-28T11:45:11.158Z,4.65
2019-04-28T11:47:39.639Z,4.00
2019-04-28T11:50:08.610Z,4.60
2019-04-28T11:52:37.237Z,2.35
2019-04-28T11:55:06.773Z,4.42
2019-04-28T11:57:35.338Z,5.25
2019-04-28T12:00:07.032Z,5.33
2019-04-28T12:02:38.368Z,4.15
2019-04-28T12:05:07.354Z,4.00
2019-04-28T12:07:35.951Z,4.60
2019-04-28T12:10:07.509Z,2.83
2019-04-28T12:12:49.693Z,2.77
2019-04-28T12:15:35.793Z,2.65
2019-04-28T12:18:21.185Z,4.15
2019-04-28T12:20:49.810Z,3.75
2019-04-28T12:23:18.309Z,5.15
2019-04-28T12:25:46.937Z,4.95
2019-04-28T12:28:15.576Z,4.80
2019-04-28T12:30:45.648Z,3.80
2019-04-28T12:33:14.205Z,2.42
2019-04-28T12:35:47.955Z,4.75
2019-04-28T12:38:12.968Z,4.97
2019-04-28T12:40:44.059Z,1.85
2019-04-28T12:43:12.650Z,3.87
2019-04-28T12:45:41.282Z,3.85
2019-04-28T12:48:09.896Z,4.22
2019-04-28T12:50:43.009Z,5.42
2019-04-28T12:53:11.644Z,2.80
2019-04-28T12:55:40.313Z,3.17
2019-04-28T12:58:08.857Z,3.10
2019-04-28T13:00:39.115Z,5.33
2019-04-28T13:03:18.162Z,4.17
2019-04-28T13:06:02.279Z,2.40
2019-04-28T13:08:21.678Z,3.00
2019-04-28T13:10:50.298Z,4.53
2019-04-28T13:13:21.963Z,3.27
2019-04-28T13:15:50.598Z,2.02
2019-04-28T13:18:19.198Z,2.67
2019-04-28T13:20:47.824Z,4.33
2019-04-28T13:23:16.502Z,2.92
2019-04-28T13:25:45.051Z,4.08
2019-04-28T13:28:13.636Z,4.65
2019-04-28T13:30:42.236Z,2.15
2019-04-28T13:33:10.784Z,7.85
2019-04-28T13:35:39.523Z,4.28
2019-04-28T13:38:08.080Z,2.33
2019-04-28T13:40:41.614Z,2.22
2019-04-28T13:43:10.201Z,2.00
2019-04-28T13:45:38.848Z,2.25
2019-04-28T13:48:07.478Z,3.55
2019-04-28T13:50:37.384Z,2.08
2019-04-28T13:53:06.972Z,4.78
2019-04-28T13:55:46.551Z,2.55
2019-04-28T13:58:17.159Z,4.60
2019-04-28T14:01:03.707Z,2.00
2019-04-28T14:03:50.317Z,2.98
2019-04-28T14:06:29.173Z,2.72
2019-04-28T14:08:57.802Z,2.65
2019-04-28T14:11:26.418Z,2.30
2019-04-28T14:13:55.115Z,1.92
2019-04-28T14:16:23.702Z,3.62
2019-04-28T14:18:52.383Z,3.00
2019-04-28T14:21:21.027Z,2.52
2019-04-28T14:23:49.716Z,3.35
2019-04-28T14:26:18.387Z,3.58
2019-04-28T14:28:46.898Z,2.37
2019-04-28T14:31:15.562Z,2.02
2019-04-28T14:33:44.179Z,3.00
2019-04-28T14:36:12.990Z,2.12
2019-04-28T14:38:44.315Z,3.17
2019-04-28T14:41:12.937Z,4.17
2019-04-28T14:43:41.534Z,1.20
2019-04-28T14:46:10.234Z,3.60
2019-04-28T14:48:41.971Z,1.55
2019-04-28T14:51:10.590Z,3.55
2019-04-28T14:53:39.135Z,2.05
2019-04-28T14:56:07.756Z,3.58
2019-04-28T14:58:39.169Z,2.62
2019-04-28T15:01:15.404Z,3.85
2019-04-28T15:03:48.360Z,1.60
2019-04-28T15:06:18.623Z,2.67
2019-04-28T15:08:51.910Z,1.27
2019-04-28T15:11:25.117Z,3.70
2019-04-28T15:13:55.509Z,8.08
2019-04-28T15:16:24.396Z,4.08
2019-04-28T15:18:52.934Z,2.80
2019-04-28T15:21:21.568Z,2.05
2019-04-28T15:23:50.734Z,2.70
2019-04-28T15:26:19.368Z,3.90
2019-04-28T15:28:47.987Z,1.95
2019-04-28T15:31:16.653Z,2.25
2019-04-28T15:33:45.282Z,1.95
2019-04-28T15:36:14.148Z,1.62
2019-04-28T15:38:42.767Z,2.35
2019-04-28T15:41:21.345Z,1.10
2019-04-28T15:43:41.599Z,2.35
2019-04-28T15:46:10.271Z,2.62
2019-04-28T15:48:38.818Z,1.50
2019-04-28T15:51:07.548Z,5.03
2019-04-28T15:53:36.735Z,3.02
2019-04-28T15:56:09.969Z,1.55
2019-04-28T15:58:39.618Z,1.22
2019-04-28T16:01:08.817Z,1.72
2019-04-28T16:03:40.211Z,3.77
2019-04-28T16:06:08.841Z,1.35
2019-04-28T16:08:40.232Z,3.72
2019-04-28T16:11:11.763Z,1.50
2019-04-28T16:13:40.311Z,2.90
2019-04-28T16:16:08.942Z,1.77
2019-04-28T16:18:37.570Z,4.53
2019-04-28T16:21:06.187Z,1.82
2019-04-28T16:23:34.822Z,1.45
2019-04-28T16:26:03.443Z,2.75
2019-04-28T16:28:31.933Z,1.62
2019-04-28T16:31:00.555Z,4.62
2019-04-28T16:33:29.217Z,4.65
2019-04-28T16:35:57.854Z,4.58
2019-04-28T16:38:29.223Z,3.90
2019-04-28T16:41:05.605Z,6.70
2019-04-28T16:43:38.853Z,2.53
2019-04-28T16:46:07.404Z,2.43
2019-04-28T16:48:38.966Z,4.80
2019-04-28T16:51:07.590Z,6.13
2019-04-28T16:53:36.175Z,7.80
2019-04-28T16:56:09.362Z,9.67
2019-04-28T16:58:42.079Z,4.73
2019-04-28T17:01:26.666Z,3.03
2019-04-28T17:03:55.332Z,8.70
2019-04-28T17:06:24.015Z,4.03
2019-04-28T17:08:52.631Z,5.70
2019-04-28T17:11:21.367Z,5.00
2019-04-28T17:13:49.943Z,4.63
2019-04-28T17:16:18.527Z,3.77
2019-04-28T17:18:47.191Z,6.20
2019-04-28T17:21:15.778Z,7.40
2019-04-28T17:23:44.441Z,6.63
2019-04-28T17:26:13.323Z,7.53
2019-04-28T17:28:41.922Z,6.63
2019-04-28T17:31:10.767Z,7.77
2019-04-28T17:33:39.320Z,7.97
2019-04-28T17:36:07.953Z,7.13
2019-04-28T17:38:36.600Z,6.83
2019-04-28T17:41:05.530Z,5.37
2019-04-28T17:43:35.002Z,9.37
2019-04-28T17:46:06.948Z,4.50
2019-04-28T17:48:39.665Z,4.73
2019-04-28T17:51:08.448Z,7.20
2019-04-28T17:53:37.074Z,5.63
2019-04-28T17:56:05.735Z,4.87
2019-04-28T17:58:34.349Z,5.53
2019-04-28T18:01:20.493Z,7.07
2019-04-28T18:03:50.617Z,5.37
2019-04-28T18:06:26.797Z,4.13
2019-04-28T18:08:55.346Z,6.63
2019-04-28T18:11:24.012Z,4.90
2019-04-28T18:13:52.560Z,5.23
2019-04-28T18:16:39.073Z,6.00
2019-04-28T18:19:12.224Z,5.43
2019-04-28T18:21:43.615Z,5.17
2019-04-28T18:24:12.229Z,5.17
2019-04-28T18:26:40.917Z,8.63
2019-04-28T18:29:09.472Z,8.93
2019-04-28T18:31:52.093Z,6.07
2019-04-28T18:34:37.134Z,4.67
2019-04-28T18:37:13.807Z,6.47
2019-04-28T18:40:00.366Z,5.33
2019-04-28T18:42:33.100Z,4.57
2019-04-28T18:45:01.597Z,4.67
2019-04-28T18:47:30.104Z,5.80
2019-04-28T18:49:58.727Z,3.57
2019-04-28T18:52:27.335Z,7.63
2019-04-28T18:54:55.858Z,3.23
2019-04-28T18:57:24.481Z,3.70
2019-04-28T18:59:52.958Z,4.87
2019-04-28T19:02:34.224Z,5.77
2019-04-28T19:05:02.911Z,5.67
2019-04-28T19:07:35.767Z,6.37
2019-04-28T19:10:09.564Z,7.60
2019-04-28T19:12:42.663Z,3.33
2019-04-28T19:15:24.601Z,5.50
2019-04-28T19:17:54.916Z,4.13
2019-04-28T19:20:23.464Z,7.00
2019-04-28T19:22:52.043Z,7.17
2019-04-28T19:25:20.609Z,4.50
2019-04-28T19:27:49.153Z,5.43
2019-04-28T19:30:17.894Z,4.70
2019-04-28T19:32:46.443Z,7.67
2019-04-28T19:35:14.998Z,5.27
2019-04-28T19:37:43.631Z,6.40
2019-04-28T19:40:13.072Z,2.77
2019-04-28T19:42:41.658Z,6.63
2019-04-28T19:45:12.194Z,7.10
2019-04-28T19:47:40.749Z,5.20
2019-04-28T19:50:09.420Z,5.43
2019-04-28T19:52:40.960Z,5.37
2019-04-28T19:55:12.833Z,8.13
2019-04-28T19:57:46.004Z,11.37
2019-04-28T20:00:20.108Z,11.33
2019-04-28T20:02:48.745Z,10.67
2019-04-28T20:05:20.236Z,7.17
2019-04-28T20:07:48.869Z,7.77
2019-04-28T20:10:17.495Z,7.07
2019-04-28T20:12:45.986Z,8.93
2019-04-28T20:15:14.618Z,10.67
2019-04-28T20:17:43.278Z,6.77
2019-04-28T20:20:11.990Z,10.07
2019-04-28T20:22:40.554Z,11.17
2019-04-28T20:25:10.086Z,7.07
2019-04-28T20:27:38.753Z,9.20
2019-04-28T20:30:08.277Z,5.13
2019-04-28T20:32:44.147Z,4.23
2019-04-28T20:35:14.928Z,5.33
2019-04-28T20:38:00.192Z,10.00
2019-04-28T20:40:42.319Z,4.30
2019-04-28T20:43:15.520Z,5.87
2019-04-28T20:45:44.066Z,5.63
2019-04-28T20:48:12.704Z,3.90
2019-04-28T20:50:41.304Z,6.80
2019-04-28T20:53:09.791Z,4.97
2019-04-28T20:55:38.414Z,6.13
2019-04-28T20:58:07.080Z,6.10
2019-04-28T21:00:35.698Z,4.33
2019-04-28T21:03:04.469Z,7.17
2019-04-28T21:05:33.098Z,10.83
2019-04-28T21:08:04.206Z,10.77
2019-04-28T21:10:38.338Z,4.60
2019-04-28T21:13:03.122Z,4.27
2019-04-28T21:15:31.850Z,4.93
2019-04-28T21:18:00.402Z,6.47
2019-04-28T21:20:28.956Z,7.00
2019-04-28T21:22:57.569Z,7.33
2019-04-28T21:25:26.193Z,9.33
2019-04-28T21:27:54.812Z,7.87
2019-04-28T21:30:23.470Z,6.73
2019-04-28T21:32:52.022Z,7.53
2019-04-28T21:35:20.619Z,8.07
2019-04-28T21:37:49.141Z,9.50
2019-04-28T21:40:18.773Z,10.20
2019-04-28T21:42:57.545Z,9.00
2019-04-28T21:45:44.249Z,13.83
2019-04-28T21:48:14.462Z,21.13
2019-04-28T21:50:43.065Z,20.60
2019-04-28T21:53:11.734Z,22.60
2019-04-28T21:55:40.307Z,20.43
2019-04-28T21:58:08.922Z,23.80
2019-04-28T22:00:42.180Z,20.73
2019-04-28T22:03:10.746Z,21.37
2019-04-28T22:05:39.388Z,17.17
2019-04-28T22:08:08.017Z,15.53
2019-04-28T22:10:36.586Z,18.13
2019-04-28T22:13:05.214Z,14.00
2019-04-28T22:15:33.876Z,15.30
2019-04-28T22:18:02.379Z,14.93
2019-04-28T22:20:30.943Z,16.93
2019-04-28T22:23:01.223Z,15.93
2019-04-28T22:25:29.852Z,17.03
2019-04-28T22:27:58.456Z,18.90
2019-04-28T22:30:27.088Z,13.93
2019-04-28T22:32:55.773Z,11.00
2019-04-28T22:35:24.390Z,9.97
2019-04-28T22:37:53.021Z,4.60
2019-04-28T22:40:21.643Z,6.87
2019-04-28T22:42:50.236Z,7.13
2019-04-28T22:45:18.876Z,6.47
2019-04-28T22:47:47.498Z,4.63
2019-04-28T22:50:33.934Z,5.33
2019-04-28T22:53:02.724Z,3.90
2019-04-28T22:55:32.922Z,2.87
2019-04-28T22:58:03.200Z,4.40
2019-04-28T23:00:42.656Z,8.23
2019-04-28T23:03:13.722Z,10.07
2019-04-28T23:05:42.761Z,9.30
2019-04-28T23:08:11.388Z,5.47
2019-04-28T23:10:40.060Z,7.80
2019-04-28T23:13:08.688Z,14.27
2019-04-28T23:15:37.331Z,15.47
2019-04-28T23:18:06.071Z,16.43
2019-04-28T23:20:36.315Z,10.17
2019-04-28T23:23:06.617Z,6.80
2019-04-28T23:25:35.243Z,8.33
2019-04-28T23:28:04.006Z,7.80
2019-04-28T23:30:37.482Z,7.03
2019-04-28T23:33:06.149Z,7.27
2019-04-28T23:35:34.766Z,17.27
2019-04-28T23:38:03.366Z,12.50
2019-04-28T23:40:32.006Z,16.10
2019-04-28T23:43:05.055Z,8.53
2019-04-28T23:45:33.692Z,12.00
2019-04-28T23:48:02.360Z,12.33
2019-04-28T23:50:38.346Z,9.83
2019-04-28T23:53:17.498Z,8.30
2019-04-28T23:55:46.100Z,14.70
2019-04-28T23:58:14.703Z,15.30
